Alpine Marie — H3UD — position and weather

sailwx.info

Track history (hours):
 
Tides and Currents Weather Stations Pressure Air Temp Water Temp Dewpoint Dewpoint Depression Visibility Wind Speed Wind Dir Waves Ship Positions

Alpine Marie

Last reported at 2015-May-24 18:29 UTC. Time now 2015-May-24 19:25 UTC.
Position N 35°31' E 139°46'.

Length 172 m; draft 8.4 m.

Type: Tanker. MMSI: 353172000.

Date/timePositionNaut miles runAvg speedWind from/ knotsBaromVisibWave heightAir tempDewpointWater temp
2015-May-24 18:29N 35°31' E 139°46'0 0.0
2015-May-24 17:32N 35°31' E 139°46'0 0.0
2015-May-24 16:32N 35°31' E 139°46'0 0.0
2015-May-24 15:32N 35°31' E 139°46'0 0.0
2015-May-24 14:32N 35°31' E 139°46'0 0.0
2015-May-24 13:32N 35°31' E 139°46'0 0.0
2015-May-24 12:32N 35°31' E 139°46'0 0.0
2015-May-24 11:32N 35°31' E 139°46'0 0.0
2015-May-24 10:32N 35°31' E 139°46'0 0.0
2015-May-24 09:32N 35°31' E 139°46'0 0.0
2015-May-24 08:32N 35°31' E 139°46'0 0.0
2015-May-24 07:32N 35°31' E 139°46'0 0.0
2015-May-24 06:32N 35°31' E 139°46'0 0.0
2015-May-24 05:32N 35°31' E 139°46'0 0.0
2015-May-24 04:32N 35°31' E 139°46'0 0.0
2015-May-24 03:32N 35°31' E 139°46'0 0.0
2015-May-24 02:32N 35°31' E 139°46'0 0.0
2015-May-24 01:32N 35°31' E 139°46'0 0.4
2015-May-24 00:34N 35°31' E 139°46'3 3.0
2015-May-23 23:32N 35°28' E 139°47'0 0.1
2015-May-23 22:32N 35°28' E 139°47'0 0.0
2015-May-23 21:32N 35°28' E 139°47'0 0.1
2015-May-23 20:32N 35°28' E 139°47'0 0.0
2015-May-23 19:32N 35°28' E 139°47'0 0.0
2015-May-23 18:32N 35°28' E 139°47'0 0.0
2015-May-23 17:32N 35°28' E 139°47'0 0.0
2015-May-23 16:32N 35°28' E 139°47'0 0.0
2015-May-23 15:32N 35°28' E 139°47'0 0.0
2015-May-23 14:32N 35°28' E 139°47'0 0.0
2015-May-23 13:32N 35°28' E 139°47'0 0.0
2015-May-23 12:32N 35°28' E 139°47'0 0.0
2015-May-23 11:32N 35°28' E 139°47'0 0.0
2015-May-23 10:32N 35°28' E 139°47'0 0.0
2015-May-23 09:32N 35°28' E 139°47'0 0.0
2015-May-23 08:32N 35°28' E 139°47'0 0.0
2015-May-23 07:32N 35°28' E 139°47'0 0.2
2015-May-23 06:32N 35°28' E 139°47'5 5.1
2015-May-23 05:34N 35°23' E 139°46'1212.1
2015-May-23 04:34N 35°11' E 139°47'8 8.0
2015-May-23 03:34N 35°03' E 139°44'10 9.6
2015-May-23 02:34N 34°56' E 139°37'1110.9
2015-May-23 01:33N 34°54' E 139°24'  
Track history (hours):
 
Tides and Currents Weather Stations Pressure Air Temp Water Temp Dewpoint Dewpoint Depression Visibility Wind Speed Wind Dir Waves Ship Positions

Alpine Marie

Last reported at 2015-May-24 18:29 UTC. Time now 2015-May-24 19:25 UTC.
Position N 35°31' E 139°46'.

Length 172 m; draft 8.4 m.

Type: Tanker. MMSI: 353172000.

Date/timePositionNaut miles runAvg speedWind from/ knotsBaromVisibWave heightAir tempDewpointWater temp
2015-May-24 18:29N 35°31' E 139°46'0 0.0
2015-May-24 17:32N 35°31' E 139°46'0 0.0
2015-May-24 16:32N 35°31' E 139°46'0 0.0
2015-May-24 15:32N 35°31' E 139°46'0 0.0
2015-May-24 14:32N 35°31' E 139°46'0 0.0
2015-May-24 13:32N 35°31' E 139°46'0 0.0
2015-May-24 12:32N 35°31' E 139°46'0 0.0
2015-May-24 11:32N 35°31' E 139°46'0 0.0
2015-May-24 10:32N 35°31' E 139°46'0 0.0
2015-May-24 09:32N 35°31' E 139°46'0 0.0
2015-May-24 08:32N 35°31' E 139°46'0 0.0
2015-May-24 07:32N 35°31' E 139°46'0 0.0
2015-May-24 06:32N 35°31' E 139°46'0 0.0
2015-May-24 05:32N 35°31' E 139°46'0 0.0
2015-May-24 04:32N 35°31' E 139°46'0 0.0
2015-May-24 03:32N 35°31' E 139°46'0 0.0
2015-May-24 02:32N 35°31' E 139°46'0 0.0
2015-May-24 01:32N 35°31' E 139°46'0 0.4
2015-May-24 00:34N 35°31' E 139°46'3 3.0
2015-May-23 23:32N 35°28' E 139°47'0 0.1
2015-May-23 22:32N 35°28' E 139°47'0 0.0
2015-May-23 21:32N 35°28' E 139°47'0 0.1
2015-May-23 20:32N 35°28' E 139°47'0 0.0
2015-May-23 19:32N 35°28' E 139°47'0 0.0
2015-May-23 18:32N 35°28' E 139°47'0 0.0
2015-May-23 17:32N 35°28' E 139°47'0 0.0
2015-May-23 16:32N 35°28' E 139°47'0 0.0
2015-May-23 15:32N 35°28' E 139°47'0 0.0
2015-May-23 14:32N 35°28' E 139°47'0 0.0
2015-May-23 13:32N 35°28' E 139°47'0 0.0
2015-May-23 12:32N 35°28' E 139°47'0 0.0
2015-May-23 11:32N 35°28' E 139°47'0 0.0
2015-May-23 10:32N 35°28' E 139°47'0 0.0
2015-May-23 09:32N 35°28' E 139°47'0 0.0
2015-May-23 08:32N 35°28' E 139°47'0 0.0
2015-May-23 07:32N 35°28' E 139°47'0 0.2
2015-May-23 06:32N 35°28' E 139°47'5 5.1
2015-May-23 05:34N 35°23' E 139°46'1212.1
2015-May-23 04:34N 35°11' E 139°47'8 8.0
2015-May-23 03:34N 35°03' E 139°44'10 9.6
2015-May-23 02:34N 34°56' E 139°37'1110.9
2015-May-23 01:33N 34°54' E 139°24'  

Dump ship's entire track history